createdAt,value
2017-08-25T00:00:15.898Z,100469
2017-08-25T00:02:46.542Z,100467
2017-08-25T00:08:11.596Z,100478
2017-08-25T00:10:41.844Z,100472
2017-08-25T00:13:11.590Z,100474
2017-08-25T00:15:48.350Z,100468
2017-08-25T00:24:06.953Z,100469
2017-08-25T00:26:36.626Z,100481
2017-08-25T00:29:06.490Z,100470
2017-08-25T00:31:46.485Z,100476
2017-08-25T00:34:16.146Z,100475
2017-08-25T00:36:45.830Z,100479
2017-08-25T00:39:15.438Z,100477
2017-08-25T00:41:45.213Z,100485
2017-08-25T00:44:15.637Z,100473
2017-08-25T00:46:45.283Z,100486
2017-08-25T00:49:14.936Z,100487
2017-08-25T00:51:44.526Z,100487
2017-08-25T00:54:15.192Z,100485
2017-08-25T00:56:45.434Z,100494
2017-08-25T00:59:15.199Z,100488
2017-08-25T01:01:46.284Z,100490
2017-08-25T01:04:15.907Z,100487
2017-08-25T01:06:45.485Z,100487
2017-08-25T01:09:15.450Z,100482
2017-08-25T01:11:45.072Z,100487
2017-08-25T01:14:14.652Z,100484
2017-08-25T01:16:48.093Z,100489
2017-08-25T01:22:12.698Z,100491
2017-08-25T01:24:42.273Z,100493
2017-08-25T01:27:12.130Z,100488
2017-08-25T01:29:48.374Z,100480
2017-08-25T01:32:18.101Z,100484
2017-08-25T01:34:48.106Z,100484
2017-08-25T01:37:17.769Z,100476
2017-08-25T01:39:47.435Z,100476
2017-08-25T01:42:17.609Z,100476
2017-08-25T01:44:48.332Z,100484
2017-08-25T01:47:19.577Z,100483
2017-08-25T01:49:49.289Z,100479
2017-08-25T01:52:18.863Z,100491
2017-08-25T01:54:49.325Z,100484
2017-08-25T02:00:14.137Z,100473
2017-08-25T02:02:44.479Z,100492
2017-08-25T02:05:14.220Z,100481
2017-08-25T02:07:44.340Z,100475
2017-08-25T02:10:14.632Z,100483
2017-08-25T02:12:49.087Z,100486
2017-08-25T02:15:19.350Z,100481
2017-08-25T02:17:49.192Z,100480
2017-08-25T02:20:20.151Z,100490
2017-08-25T02:22:49.824Z,100477
2017-08-25T02:28:15.657Z,100485
2017-08-25T02:30:46.062Z,100481
2017-08-25T02:33:16.534Z,100482
2017-08-25T02:35:46.705Z,100490
2017-08-25T02:38:16.370Z,100488
2017-08-25T02:40:47.684Z,100496
2017-08-25T02:43:18.020Z,100489
2017-08-25T02:45:48.308Z,100480
2017-08-25T02:48:18.384Z,100491
2017-08-25T02:50:48.523Z,100487
2017-08-25T02:53:18.454Z,100483
2017-08-25T02:55:48.054Z,100474
2017-08-25T02:58:18.621Z,100479
2017-08-25T03:00:48.946Z,100479
2017-08-25T03:03:18.534Z,100474
2017-08-25T03:05:48.872Z,100485
2017-08-25T03:08:18.572Z,100482
2017-08-25T03:10:48.145Z,100479
2017-08-25T03:13:18.254Z,100481
2017-08-25T03:15:48.332Z,100480
2017-08-25T03:18:17.924Z,100482
2017-08-25T03:20:47.627Z,100489
2017-08-25T03:26:13.227Z,100484
2017-08-25T03:28:44.012Z,100481
2017-08-25T03:31:14.450Z,100482
2017-08-25T03:33:44.839Z,100482
2017-08-25T03:36:15.325Z,100483
2017-08-25T03:38:46.255Z,100484
2017-08-25T03:41:16.719Z,100481
2017-08-25T03:43:46.806Z,100483
2017-08-25T03:46:16.469Z,100491
2017-08-25T03:48:46.038Z,100489
2017-08-25T03:51:16.630Z,100493
2017-08-25T03:53:46.379Z,100492
2017-08-25T03:56:16.745Z,100492
2017-08-25T03:58:46.309Z,100504
2017-08-25T04:01:16.625Z,100504
2017-08-25T04:03:46.573Z,100505
2017-08-25T04:09:12.237Z,100501
2017-08-25T04:11:42.718Z,100498
2017-08-25T04:14:12.288Z,100499
2017-08-25T04:16:42.286Z,100500
2017-08-25T04:19:12.267Z,100500
2017-08-25T04:21:42.063Z,100498
2017-08-25T04:24:11.664Z,100502
2017-08-25T04:26:41.348Z,100503
2017-08-25T04:29:11.688Z,100500
2017-08-25T04:31:47.920Z,100515
2017-08-25T04:34:18.246Z,100506
2017-08-25T04:36:48.286Z,100503
2017-08-25T04:39:18.553Z,100507
2017-08-25T04:41:48.402Z,100508
2017-08-25T05:01:48.956Z,100523
2017-08-25T05:04:18.530Z,100527
2017-08-25T05:06:48.952Z,100525
2017-08-25T05:20:56.427Z,100535
2017-08-25T05:23:45.476Z,100536
2017-08-25T05:29:12.804Z,100531
2017-08-25T05:31:48.001Z,100528
2017-08-25T05:40:07.664Z,100533
2017-08-25T05:42:38.619Z,100537
2017-08-25T05:45:09.002Z,100537
2017-08-25T05:47:39.526Z,100540
2017-08-25T05:50:09.361Z,100538
2017-08-25T05:52:39.763Z,100542
2017-08-25T05:55:10.122Z,100540
2017-08-25T05:57:41.054Z,100540
2017-08-25T06:00:10.915Z,100542
2017-08-25T06:02:42.267Z,100539
2017-08-25T06:05:12.468Z,100531
2017-08-25T06:07:42.520Z,100537
2017-08-25T06:10:12.890Z,100542
2017-08-25T06:12:42.895Z,100544
2017-08-25T06:15:12.596Z,100546
2017-08-25T06:17:43.020Z,100550
2017-08-25T06:20:13.075Z,100557
2017-08-25T06:22:42.945Z,100555
2017-08-25T06:25:13.290Z,100552
2017-08-25T06:27:43.285Z,100556
2017-08-25T06:30:13.233Z,100562
2017-08-25T06:32:44.143Z,100558
2017-08-25T06:35:13.748Z,100571
2017-08-25T06:37:43.337Z,100569
2017-08-25T06:43:07.465Z,100568
2017-08-25T06:45:37.983Z,100574
2017-08-25T06:48:07.968Z,100573
2017-08-25T06:50:38.026Z,100582
2017-08-25T06:56:02.896Z,100578
2017-08-25T06:58:46.252Z,100579
2017-08-25T07:01:16.777Z,100576
2017-08-25T07:03:47.492Z,100576
2017-08-25T07:12:06.745Z,100591
2017-08-25T07:14:46.527Z,100589
2017-08-25T07:20:10.882Z,100590
2017-08-25T07:22:46.847Z,100593
2017-08-25T07:25:17.085Z,100595
2017-08-25T07:27:46.662Z,100596
2017-08-25T07:30:16.252Z,100605
2017-08-25T07:32:47.265Z,100609
2017-08-25T07:35:20.160Z,100599
2017-08-25T07:37:49.885Z,100605
2017-08-25T07:40:19.476Z,100604
2017-08-25T07:42:49.755Z,100596
2017-08-25T07:45:33.685Z,100603
2017-08-25T07:50:58.176Z,100617
2017-08-25T07:53:28.364Z,100604
2017-08-25T07:55:58.023Z,100607
2017-08-25T07:58:27.609Z,100603
2017-08-25T08:00:57.552Z,100602
2017-08-25T08:03:27.176Z,100608
2017-08-25T08:05:57.813Z,100606
2017-08-25T08:08:34.744Z,100598
2017-08-25T08:11:04.556Z,100609
2017-08-25T08:13:34.124Z,100615
2017-08-25T08:16:03.889Z,100614
2017-08-25T08:18:45.699Z,100603
2017-08-25T08:22:16.136Z,100615
2017-08-25T08:24:45.714Z,100613
2017-08-25T08:27:15.501Z,100613
2017-08-25T08:29:48.673Z,100616
2017-08-25T08:32:18.364Z,100613
2017-08-25T08:34:47.939Z,100605
2017-08-25T08:37:17.755Z,100615
2017-08-25T08:39:48.310Z,100621
2017-08-25T08:42:17.940Z,100615
2017-08-25T08:44:47.576Z,100614
2017-08-25T08:47:17.671Z,100608
2017-08-25T08:49:47.325Z,100618
2017-08-25T08:52:17.034Z,100608
2017-08-25T08:54:46.940Z,100613
2017-08-25T09:00:11.456Z,100610
2017-08-25T09:02:41.273Z,100609
2017-08-25T09:05:11.496Z,100600
2017-08-25T09:07:41.108Z,100600
2017-08-25T09:13:46.679Z,100604
2017-08-25T09:16:16.335Z,100593
2017-08-25T09:18:45.913Z,100596
2017-08-25T09:21:28.288Z,100602
2017-08-25T09:23:57.871Z,100608
2017-08-25T09:26:27.451Z,100603
2017-08-25T09:28:57.230Z,100604
2017-08-25T09:31:43.078Z,100597
2017-08-25T09:34:12.700Z,100598
2017-08-25T09:36:42.303Z,100595
2017-08-25T09:42:06.711Z,100596
2017-08-25T09:44:36.534Z,100602
2017-08-25T09:49:58.777Z,100595
2017-08-25T09:52:29.682Z,100599
2017-08-25T09:54:59.921Z,100587
2017-08-25T09:57:45.810Z,100596
2017-08-25T10:00:15.537Z,100598
2017-08-25T10:02:45.195Z,100591
2017-08-25T10:08:10.482Z,100586
2017-08-25T10:10:40.149Z,100590
2017-08-25T10:16:04.469Z,100587
2017-08-25T10:18:34.879Z,100580
2017-08-25T10:21:12.132Z,100590
2017-08-25T10:23:45.321Z,100578
2017-08-25T10:26:15.643Z,100587
2017-08-25T10:28:45.216Z,100586
2017-08-25T10:34:20.903Z,100586
2017-08-25T10:37:02.240Z,100583
2017-08-25T10:39:44.532Z,100587
2017-08-25T10:42:25.749Z,100586
2017-08-25T10:48:00.426Z,100590
2017-08-25T10:50:34.776Z,100591
2017-08-25T10:53:04.394Z,100583
2017-08-25T10:55:43.911Z,100581
2017-08-25T10:58:14.230Z,100589
2017-08-25T11:00:43.967Z,100582
2017-08-25T11:03:26.305Z,100586
2017-08-25T11:05:57.286Z,100590
2017-08-25T11:08:27.701Z,100581
2017-08-25T11:10:58.218Z,100570
2017-08-25T11:13:47.483Z,100579
2017-08-25T11:16:17.070Z,100571
2017-08-25T11:18:46.874Z,100561
2017-08-25T11:24:11.742Z,100569
2017-08-25T11:26:41.314Z,100562
2017-08-25T11:35:00.897Z,100549
2017-08-25T11:37:44.337Z,100561
2017-08-25T11:46:04.097Z,100569
2017-08-25T11:48:34.168Z,100554
2017-08-25T11:53:59.265Z,100551
2017-08-25T11:56:29.553Z,100555
2017-08-25T11:59:00.172Z,100548
2017-08-25T12:01:43.722Z,100548
2017-08-25T12:04:13.840Z,100552
2017-08-25T12:06:43.551Z,100550
2017-08-25T12:12:08.614Z,100551
2017-08-25T12:14:44.669Z,100554
2017-08-25T12:23:03.153Z,100553
2017-08-25T12:25:44.961Z,100547
2017-08-25T12:34:04.749Z,100549
2017-08-25T12:36:34.311Z,100556
2017-08-25T12:39:03.977Z,100562
2017-08-25T12:41:46.008Z,100550
2017-08-25T12:44:15.671Z,100549
2017-08-25T12:46:45.252Z,100546
2017-08-25T12:52:09.696Z,100553
2017-08-25T12:54:46.021Z,100547
2017-08-25T13:00:11.419Z,100549
2017-08-25T13:02:41.007Z,100546
2017-08-25T13:08:05.113Z,100548
2017-08-25T13:10:46.924Z,100540
2017-08-25T13:16:11.573Z,100536
2017-08-25T13:18:44.133Z,100534
2017-08-25T13:24:09.018Z,100533
2017-08-25T13:26:38.613Z,100535
2017-08-25T13:32:02.637Z,100533
2017-08-25T13:34:44.425Z,100533
2017-08-25T13:43:03.422Z,100518
2017-08-25T13:45:45.327Z,100520
2017-08-25T13:48:15.036Z,100515
2017-08-25T13:50:44.767Z,100523
2017-08-25T13:56:09.192Z,100516
2017-08-25T13:58:38.922Z,100515
2017-08-25T14:04:02.913Z,100524
2017-08-25T14:06:32.475Z,100524
2017-08-25T14:09:02.084Z,100525
2017-08-25T14:11:44.290Z,100525
2017-08-25T14:14:13.910Z,100526
2017-08-25T14:16:43.571Z,100522
2017-08-25T14:22:07.788Z,100526
2017-08-25T14:24:37.362Z,100533
2017-08-25T14:30:39.115Z,100531
2017-08-25T14:36:03.480Z,100524
2017-08-25T14:38:33.045Z,100519
2017-08-25T14:41:02.646Z,100525
2017-08-25T14:43:45.452Z,100527
2017-08-25T14:46:15.069Z,100517
2017-08-25T14:48:44.745Z,100523
2017-08-25T14:54:09.481Z,100521
2017-08-25T14:56:39.089Z,100527
2017-08-25T15:04:57.689Z,100533
2017-08-25T15:07:43.533Z,100529
2017-08-25T15:10:13.169Z,100522
2017-08-25T15:12:42.741Z,100520
2017-08-25T15:18:07.247Z,100516
2017-08-25T15:20:36.906Z,100513
2017-08-25T15:25:44.360Z,100516
2017-08-25T15:34:02.904Z,100518
2017-08-25T15:36:45.420Z,100520
2017-08-25T15:42:10.019Z,100523
2017-08-25T15:44:45.843Z,100523
2017-08-25T15:50:09.810Z,100528
2017-08-25T15:52:45.760Z,100519
2017-08-25T16:03:59.776Z,100533
2017-08-25T16:06:43.356Z,100520
2017-08-25T16:15:01.903Z,100525
2017-08-25T16:17:44.153Z,100520
2017-08-25T16:20:13.793Z,100523
2017-08-25T16:22:44.066Z,100520
2017-08-25T16:28:09.135Z,100527
2017-08-25T16:36:46.796Z,100517
2017-08-25T16:42:11.218Z,100524
2017-08-25T16:44:47.007Z,100519
2017-08-25T16:50:11.736Z,100522
2017-08-25T16:52:41.332Z,100520
2017-08-25T16:58:05.270Z,100520
2017-08-25T17:00:45.158Z,100518
2017-08-25T17:06:09.844Z,100529
2017-08-25T17:08:45.865Z,100530
2017-08-25T17:14:09.750Z,100536
2017-08-25T17:16:39.326Z,100537
2017-08-25T17:19:08.982Z,100530
2017-08-25T17:21:38.560Z,100528
2017-08-25T17:24:08.223Z,100529
2017-08-25T17:26:37.807Z,100539
2017-08-25T17:32:02.673Z,100535
2017-08-25T17:34:32.246Z,100535
2017-08-25T17:37:02.638Z,100541
2017-08-25T17:39:32.221Z,100536
2017-08-25T17:42:02.395Z,100536
2017-08-25T17:44:31.990Z,100534
2017-08-25T17:47:01.625Z,100532
2017-08-25T17:49:31.196Z,100541
2017-08-25T17:52:01.021Z,100532
2017-08-25T17:54:30.602Z,100541
2017-08-25T17:57:00.555Z,100542
2017-08-25T17:59:30.186Z,100544
2017-08-25T18:01:59.867Z,100543
2017-08-25T18:04:29.706Z,100553
2017-08-25T18:06:59.357Z,100555
2017-08-25T18:09:28.926Z,100555
2017-08-25T18:11:58.594Z,100557
2017-08-25T18:14:28.222Z,100557
2017-08-25T18:16:57.967Z,100568
2017-08-25T18:19:27.614Z,100561
2017-08-25T18:24:48.570Z,100563
2017-08-25T18:27:18.146Z,100571
2017-08-25T18:29:47.786Z,100571
2017-08-25T18:35:12.104Z,100574
2017-08-25T18:37:41.681Z,100579
2017-08-25T18:40:11.309Z,100581
2017-08-25T18:42:40.958Z,100582
2017-08-25T18:45:10.625Z,100582
2017-08-25T18:47:40.194Z,100579
2017-08-25T18:50:09.846Z,100591
2017-08-25T18:52:39.535Z,100583
2017-08-25T18:55:09.180Z,100586
2017-08-25T18:57:46.707Z,100589
2017-08-25T19:00:16.399Z,100586
2017-08-25T19:02:45.970Z,100589
2017-08-25T19:19:48.979Z,100600
2017-08-25T19:22:18.540Z,100597
2017-08-25T19:24:48.146Z,100604
2017-08-25T19:30:12.085Z,100599
2017-08-25T19:32:41.677Z,100597
2017-08-25T19:35:11.350Z,100601
2017-08-25T19:37:40.959Z,100591
2017-08-25T19:40:10.614Z,100578
2017-08-25T19:42:40.190Z,100591
2017-08-25T19:45:09.829Z,100600
2017-08-25T19:47:39.419Z,100599
2017-08-25T19:50:09.175Z,100599
2017-08-25T19:52:38.905Z,100596
2017-08-25T19:58:02.902Z,100598
2017-08-25T20:00:32.483Z,100599
2017-08-25T20:03:02.065Z,100598
2017-08-25T20:05:31.699Z,100603
2017-08-25T20:08:01.265Z,100607
2017-08-25T20:10:47.698Z,100604
2017-08-25T20:13:17.270Z,100606
2017-08-25T20:15:46.842Z,100611
2017-08-25T20:18:16.475Z,100614
2017-08-25T20:20:46.095Z,100610
2017-08-25T20:26:10.523Z,100608
2017-08-25T20:28:40.110Z,100603
2017-08-25T20:31:09.728Z,100608
2017-08-25T20:33:39.284Z,100608
2017-08-25T20:36:08.866Z,100612
2017-08-25T20:38:46.881Z,100615
2017-08-25T20:41:16.458Z,100610
2017-08-25T20:43:46.065Z,100616
2017-08-25T20:46:15.695Z,100609
2017-08-25T20:48:45.273Z,100618
2017-08-25T20:54:09.801Z,100626
2017-08-25T20:56:39.378Z,100624
2017-08-25T20:59:08.986Z,100625
2017-08-25T21:01:38.747Z,100626
2017-08-25T21:04:08.326Z,100622
2017-08-25T21:06:46.360Z,100620
2017-08-25T21:09:15.933Z,100631
2017-08-25T21:11:45.504Z,100621
2017-08-25T21:14:15.104Z,100624
2017-08-25T21:16:44.664Z,100624
2017-08-25T21:19:14.230Z,100624
2017-08-25T21:21:43.836Z,100618
2017-08-25T21:24:13.413Z,100618
2017-08-25T21:26:42.986Z,100614
2017-08-25T21:29:12.592Z,100621
2017-08-25T21:31:42.182Z,100624
2017-08-25T21:34:11.762Z,100626
2017-08-25T21:36:41.393Z,100629
2017-08-25T21:39:11.000Z,100617
2017-08-25T21:41:40.617Z,100619
2017-08-25T21:44:10.333Z,100621
2017-08-25T21:46:46.776Z,100619
2017-08-25T21:49:16.358Z,100621
2017-08-25T21:51:46.047Z,100621
2017-08-25T21:54:15.881Z,100628
2017-08-25T21:56:45.461Z,100624
2017-08-25T21:59:15.053Z,100625
2017-08-25T22:01:44.699Z,100623
2017-08-25T22:07:08.895Z,100631
2017-08-25T22:09:38.787Z,100621
2017-08-25T22:12:08.391Z,100624
2017-08-25T22:14:38.032Z,100622
2017-08-25T22:17:07.714Z,100627
2017-08-25T22:19:47.292Z,100619
2017-08-25T22:22:16.867Z,100617
2017-08-25T22:24:46.473Z,100621
2017-08-25T22:27:16.056Z,100624
2017-08-25T22:29:45.682Z,100620
2017-08-25T22:32:16.280Z,100624
2017-08-25T22:34:45.862Z,100623
2017-08-25T22:37:15.449Z,100617
2017-08-25T22:39:48.409Z,100620
2017-08-25T22:45:12.314Z,100615
2017-08-25T22:47:41.906Z,100613
2017-08-25T22:50:11.477Z,100615
2017-08-25T22:52:41.092Z,100602
2017-08-25T22:55:10.838Z,100605
2017-08-25T22:57:40.463Z,100611
2017-08-25T23:00:10.109Z,100613
2017-08-25T23:02:46.628Z,100615
2017-08-25T23:05:16.240Z,100613
2017-08-25T23:07:47.245Z,100619
2017-08-25T23:10:16.856Z,100609
2017-08-25T23:12:47.525Z,100604
2017-08-25T23:15:17.181Z,100608
2017-08-25T23:17:46.758Z,100608
2017-08-25T23:20:16.386Z,100600
2017-08-25T23:22:45.971Z,100596
2017-08-25T23:25:15.584Z,100602
2017-08-25T23:27:45.648Z,100605
2017-08-25T23:30:15.501Z,100606
2017-08-25T23:32:45.106Z,100606
2017-08-25T23:35:14.856Z,100614
2017-08-25T23:37:48.250Z,100619
2017-08-25T23:43:12.474Z,100611
2017-08-25T23:45:42.071Z,100604
2017-08-25T23:48:11.659Z,100606
2017-08-25T23:50:47.751Z,100608
2017-08-25T23:53:17.324Z,100606
2017-08-25T23:55:46.974Z,100609
2017-08-25T23:58:16.557Z,100609
